Time;durP1;ratioP1;P1;durP2;ratioP2;P2;SDS_P1;SDS_P2;PMS_P1;PMS_P2;Temp;Humidity;BMP_temperature;BMP_pressure;BME280_temperature;BME280_humidity;BME280_pressure;Samples;Min_cycle;Max_cycle;Signal;HPM_P1;HPM_P2
2023/08/13 00:01:52;;;;;;;4.20;3.70;;;;;;;24.35;44.04;95502.22;6236494;28;111963;-67
2023/08/13 00:04:55;;;;;;;5.13;4.63;;;;;;;24.32;43.91;95492.13;6235625;27;109072;-67
2023/08/13 00:07:58;;;;;;;5.32;4.82;;;;;;;24.31;44.25;95500.47;6234423;27;109253;-65
2023/08/13 00:11:11;;;;;;;4.40;4.00;;;;;;;24.28;44.35;95498.41;6244311;27;109250;-67
2023/08/13 00:14:14;;;;;;;4.70;4.20;;;;;;;24.20;44.44;95497.28;6251549;27;109195;-67
2023/08/13 00:17:17;;;;;;;6.30;5.80;;;;;;;24.21;44.46;95504.22;6240586;27;109238;-68
2023/08/13 00:20:21;;;;;;;6.80;6.20;;;;;;;24.27;44.36;95494.97;6224815;27;109426;-68
2023/08/13 00:23:24;;;;;;;11.50;10.50;;;;;;;24.32;44.38;95502.84;6235381;27;109202;-68
2023/08/13 00:26:28;;;;;;;7.47;6.82;;;;;;;24.32;44.69;95502.84;6235508;27;109219;-68
2023/08/13 00:29:33;;;;;;;9.07;8.38;;;;;;;24.42;44.11;95504.47;6239230;27;109092;-70
2023/08/13 00:32:36;;;;;;;7.72;7.13;;;;;;;24.47;44.00;95499.75;6236033;27;110106;-66
2023/08/13 00:35:39;;;;;;;7.30;6.70;;;;;;;24.48;44.08;95501.31;6247146;27;109152;-69
2023/08/13 00:38:43;;;;;;;6.67;6.10;;;;;;;24.40;44.55;95507.44;6234385;27;109372;-68
2023/08/13 00:41:47;;;;;;;5.93;5.43;;;;;;;24.30;44.54;95509.59;6235418;27;109181;-67
2023/08/13 00:44:50;;;;;;;5.50;5.00;;;;;;;24.26;44.83;95504.06;6233365;27;109155;-65
2023/08/13 00:47:54;;;;;;;4.60;4.30;;;;;;;24.15;45.22;95514.25;6259842;27;109179;-63
2023/08/13 00:50:57;;;;;;;5.15;4.40;;;;;;;24.15;45.16;95500.88;6235000;27;109267;-62
2023/08/13 00:54:01;;;;;;;7.25;6.60;;;;;;;24.28;44.65;95507.22;6229976;27;109131;-64
2023/08/13 00:57:06;;;;;;;10.50;9.60;;;;;;;24.36;44.54;95509.16;6229877;27;109440;-64
2023/08/13 01:00:11;;;;;;;8.80;8.10;;;;;;;24.32;44.78;95497.47;6241368;27;109141;-65
2023/08/13 01:03:14;;;;;;;10.10;9.20;;;;;;;24.27;45.05;95504.88;6235143;27;109716;-66
2023/08/13 01:06:27;;;;;;;8.95;8.18;;;;;;;24.33;44.62;95499.06;6240097;27;109483;-63
2023/08/13 01:09:38;;;;;;;7.30;6.60;;;;;;;24.24;44.88;95494.78;6249744;27;109552;-65
2023/08/13 01:12:51;;;;;;;8.27;7.57;;;;;;;24.23;44.74;95493.22;6235538;27;109262;-64
2023/08/13 01:15:57;;;;;;;8.88;8.18;;;;;;;24.17;44.92;95495.22;6235488;27;109422;-64
2023/08/13 01:19:00;;;;;;;6.67;6.07;;;;;;;24.11;44.86;95499.91;6243845;27;109056;-63
2023/08/13 01:22:04;;;;;;;7.63;6.90;;;;;;;24.11;44.56;95491.09;6259408;27;109441;-65
2023/08/13 01:25:11;;;;;;;8.65;7.95;;;;;;;24.14;44.84;95501.97;6256784;27;109016;-62
2023/08/13 01:28:22;;;;;;;7.70;6.55;;;;;;;24.11;44.69;95501.81;6237091;27;109823;-66
2023/08/13 01:31:30;;;;;;;7.05;6.45;;;;;;;24.27;44.56;95492.28;6248843;27;108997;-65
2023/08/13 01:34:33;;;;;;;7.05;6.45;;;;;;;24.15;44.83;95492.84;6258916;27;109198;-65
2023/08/13 01:37:37;;;;;;;6.93;6.33;;;;;;;24.08;44.76;95497.06;6254382;27;109264;-65
2023/08/13 01:40:41;;;;;;;7.50;6.72;;;;;;;23.98;45.25;95500.75;6230831;27;109349;-63
2023/08/13 01:43:44;;;;;;;6.65;6.10;;;;;;;23.98;45.29;95491.94;6239455;27;109117;-65
2023/08/13 01:46:48;;;;;;;5.50;5.00;;;;;;;23.74;45.06;95498.44;6241041;27;109227;-64
2023/08/13 01:49:51;;;;;;;5.47;4.97;;;;;;;23.64;45.92;95492.53;6234829;27;108753;-63
2023/08/13 01:52:54;;;;;;;5.50;5.00;;;;;;;23.61;46.04;95491.25;6223710;27;110215;-65
2023/08/13 01:55:58;;;;;;;5.70;5.20;;;;;;;23.58;46.35;95487.31;6234911;27;108941;-67
2023/08/13 01:59:01;;;;;;;6.10;5.50;;;;;;;23.59;46.50;95496.91;6233838;28;110190;-67
2023/08/13 02:02:05;;;;;;;5.30;4.90;;;;;;;23.62;46.52;95489.38;6246202;27;109193;-69
2023/08/13 02:05:08;;;;;;;5.67;5.17;;;;;;;23.60;46.56;95484.34;6246260;27;110385;-67
2023/08/13 02:08:12;;;;;;;5.67;5.17;;;;;;;23.53;46.81;95492.78;6249859;27;108979;-68
2023/08/13 02:11:16;;;;;;;6.83;5.03;;;;;;;23.64;46.32;95487.19;6256977;27;109173;-66
2023/08/13 02:14:19;;;;;;;5.65;5.15;;;;;;;23.63;46.12;95489.06;6248089;27;109730;-67
2023/08/13 02:17:22;;;;;;;5.32;4.88;;;;;;;23.66;46.27;95499.13;6236582;27;110061;-66
2023/08/13 02:20:25;;;;;;;5.10;4.70;;;;;;;23.83;45.85;95490.44;6240115;27;109435;-67
2023/08/13 02:23:28;;;;;;;5.10;4.60;;;;;;;23.92;45.55;95482.50;6251337;27;109248;-66
2023/08/13 02:26:33;;;;;;;5.90;5.40;;;;;;;23.96;45.70;95494.13;6231230;27;109377;-67
2023/08/13 02:29:36;;;;;;;5.30;4.80;;;;;;;23.86;45.54;95489.84;6257348;27;109687;-66
2023/08/13 02:32:40;;;;;;;4.60;4.20;;;;;;;23.78;45.97;95494.03;6235863;27;109217;-67
2023/08/13 02:35:43;;;;;;;4.40;4.00;;;;;;;23.91;45.74;95495.06;6235221;27;109844;-67
2023/08/13 02:38:46;;;;;;;4.67;4.27;;;;;;;23.87;45.79;95496.78;6252147;27;109233;-67
2023/08/13 02:41:50;;;;;;;5.00;4.60;;;;;;;23.88;45.75;95493.00;6243063;27;108812;-65
2023/08/13 02:44:53;;;;;;;4.70;4.30;;;;;;;23.80;45.75;95499.06;6251608;27;109429;-67
2023/08/13 02:47:58;;;;;;;5.50;4.30;;;;;;;23.76;46.18;95496.22;6247932;27;109158;-67
2023/08/13 02:51:01;;;;;;;4.43;4.03;;;;;;;23.81;45.64;95498.78;6237251;27;109569;-67
2023/08/13 02:54:04;;;;;;;5.20;4.10;;;;;;;23.74;45.94;95500.31;6237370;27;109319;-67
2023/08/13 02:57:09;;;;;;;4.60;3.80;;;;;;;23.66;45.58;95507.16;6253481;27;109359;-67
2023/08/13 03:00:13;;;;;;;4.10;3.58;;;;;;;23.62;45.79;95500.06;6251587;27;110174;-67
2023/08/13 03:03:16;;;;;;;3.90;3.50;;;;;;;23.63;45.51;95502.44;6237173;27;109104;-66
2023/08/13 03:06:20;;;;;;;4.80;3.80;;;;;;;23.65;45.62;95508.25;6252134;27;109548;-66
2023/08/13 03:09:23;;;;;;;3.93;3.63;;;;;;;23.59;45.60;95504.13;6262450;27;109200;-66
2023/08/13 03:12:28;;;;;;;4.25;3.63;;;;;;;23.54;45.94;95510.41;6250124;27;110116;-66
2023/08/13 03:15:31;;;;;;;4.65;4.25;;;;;;;23.48;45.42;95505.47;6247122;27;110197;-65
2023/08/13 03:18:34;;;;;;;4.60;4.20;;;;;;;23.46;45.39;95503.09;6256974;27;109115;-66
2023/08/13 03:21:37;;;;;;;5.17;4.77;;;;;;;23.41;45.36;95507.78;6237987;27;109213;-66
2023/08/13 03:24:40;;;;;;;4.70;3.70;;;;;;;23.43;45.43;95503.69;6256767;27;109205;-67
2023/08/13 03:27:45;;;;;;;4.00;3.70;;;;;;;23.59;45.31;95507.59;6240757;27;109430;-66
2023/08/13 03:30:48;;;;;;;5.60;4.93;;;;;;;23.68;45.07;95504.97;6236698;27;109098;-65
2023/08/13 03:33:51;;;;;;;4.22;3.40;;;;;;;23.60;44.59;95503.81;6238984;27;110329;-65
2023/08/13 03:36:54;;;;;;;4.10;3.80;;;;;;;23.61;44.83;95504.63;6261637;27;109310;-66
2023/08/13 03:39:57;;;;;;;5.05;4.05;;;;;;;23.69;44.40;95500.41;6256797;27;109088;-66
2023/08/13 03:43:02;;;;;;;5.50;5.00;;;;;;;23.70;44.76;95494.78;6256163;27;108775;-66
2023/08/13 03:46:05;;;;;;;4.90;4.27;;;;;;;23.81;44.29;95504.13;6234044;27;110263;-66
2023/08/13 03:49:08;;;;;;;5.72;5.13;;;;;;;23.87;44.37;95500.25;6261962;27;110330;-66
2023/08/13 03:52:11;;;;;;;11.98;10.90;;;;;;;23.88;44.56;95509.03;6259000;27;109092;-66
2023/08/13 03:55:15;;;;;;;10.35;9.38;;;;;;;23.90;44.81;95506.84;6253724;27;109215;-65
2023/08/13 03:58:19;;;;;;;32.73;29.70;;;;;;;23.95;44.55;95505.94;6249461;27;109938;-66
2023/08/13 04:01:22;;;;;;;41.22;37.50;;;;;;;23.93;44.67;95506.25;6236904;27;109403;-66
2023/08/13 04:04:26;;;;;;;43.90;40.30;;;;;;;23.95;44.75;95511.28;6236097;27;110662;-66
2023/08/13 04:07:29;;;;;;;27.10;24.90;;;;;;;23.99;44.55;95520.25;6226362;27;109518;-65
2023/08/13 04:10:32;;;;;;;20.65;18.95;;;;;;;23.94;45.02;95518.50;6236015;27;109093;-65
2023/08/13 04:13:37;;;;;;;16.17;14.68;;;;;;;23.95;45.03;95520.09;6236518;27;109863;-65
2023/08/13 04:16:40;;;;;;;14.25;12.95;;;;;;;23.98;44.99;95524.03;6248272;27;109067;-63
2023/08/13 04:19:43;;;;;;;12.13;11.00;;;;;;;23.97;45.07;95523.25;6251235;27;109366;-64
2023/08/13 04:22:46;;;;;;;12.77;11.67;;;;;;;23.99;45.30;95525.59;6260268;27;109029;-63
2023/08/13 04:25:50;;;;;;;16.80;15.30;;;;;;;23.96;45.20;95527.00;6235399;27;109020;-64
2023/08/13 04:28:54;;;;;;;15.35;13.85;;;;;;;23.98;45.15;95529.38;6234559;27;109098;-64
2023/08/13 04:31:57;;;;;;;16.77;15.33;;;;;;;23.98;45.14;95540.06;6224396;28;110375;-65
2023/08/13 04:35:00;;;;;;;13.43;12.23;;;;;;;24.02;45.40;95543.72;6235736;27;109485;-64
2023/08/13 04:38:04;;;;;;;11.00;10.10;;;;;;;23.98;45.35;95540.84;6252119;27;110222;-65
2023/08/13 04:41:07;;;;;;;9.52;8.73;;;;;;;23.98;45.17;95551.56;6242506;27;109116;-64
2023/08/13 04:44:12;;;;;;;10.50;9.30;;;;;;;24.05;45.46;95548.50;6252951;27;109143;-64
2023/08/13 04:47:15;;;;;;;9.98;8.70;;;;;;;24.07;45.15;95548.97;6246512;27;109523;-64
2023/08/13 04:50:18;;;;;;;9.30;8.50;;;;;;;24.03;45.36;95551.47;6235390;28;111681;-64
2023/08/13 04:53:21;;;;;;;7.57;6.65;;;;;;;23.92;45.64;95552.00;6224571;27;109617;-64
2023/08/13 04:56:24;;;;;;;7.72;5.90;;;;;;;23.99;45.39;95557.69;6253695;27;109286;-65
2023/08/13 04:59:29;;;;;;;6.72;6.10;;;;;;;24.07;45.49;95560.47;6253718;27;109116;-64
2023/08/13 05:02:32;;;;;;;6.70;6.10;;;;;;;24.15;44.91;95558.91;6238810;27;109098;-65
2023/08/13 05:05:35;;;;;;;7.05;6.45;;;;;;;24.23;44.95;95560.88;6223696;27;109256;-65
2023/08/13 05:08:38;;;;;;;7.80;5.50;;;;;;;24.24;44.72;95559.75;6253651;27;111723;-65
2023/08/13 05:11:41;;;;;;;5.70;5.20;;;;;;;24.24;44.72;95567.78;6245446;27;109149;-64
2023/08/13 05:14:46;;;;;;;6.15;5.40;;;;;;;24.20;45.15;95564.16;6229332;27;109902;-64
2023/08/13 05:17:49;;;;;;;6.57;5.27;;;;;;;24.10;45.07;95561.72;6244234;27;109223;-62
2023/08/13 05:20:52;;;;;;;5.30;4.80;;;;;;;24.07;45.35;95557.00;6240275;27;109017;-63
2023/08/13 05:23:55;;;;;;;5.32;4.80;;;;;;;23.98;45.50;95562.25;6245306;27;109257;-63
2023/08/13 05:26:58;;;;;;;6.70;5.68;;;;;;;23.87;45.68;95556.38;6230383;27;109002;-62
2023/08/13 05:30:03;;;;;;;6.20;5.70;;;;;;;23.64;45.76;95560.13;6252996;27;108857;-61
2023/08/13 05:33:06;;;;;;;5.32;4.82;;;;;;;23.11;46.41;95559.94;6252723;27;110165;-63
2023/08/13 05:36:09;;;;;;;5.30;4.80;;;;;;;23.16;46.03;95562.50;6254383;27;109146;-63
2023/08/13 05:39:13;;;;;;;8.70;7.80;;;;;;;23.34;46.28;95560.78;6236187;27;109400;-72
2023/08/13 05:42:16;;;;;;;8.40;6.50;;;;;;;23.60;45.73;95569.84;6249464;27;109222;-72
2023/08/13 05:45:20;;;;;;;10.00;5.65;;;;;;;23.72;45.30;95564.75;6239968;27;110262;-73
2023/08/13 05:48:23;;;;;;;9.77;5.78;;;;;;;23.77;45.13;95567.28;6245184;27;109102;-72
2023/08/13 05:51:26;;;;;;;10.30;5.57;;;;;;;23.76;44.83;95570.28;6223495;27;109057;-72
2023/08/13 05:54:30;;;;;;;10.05;5.50;;;;;;;23.58;44.98;95561.34;6245116;27;108986;-74
2023/08/13 05:57:33;;;;;;;7.72;4.88;;;;;;;23.63;44.97;95560.41;6259042;27;109102;-73
2023/08/13 06:00:37;;;;;;;5.65;4.70;;;;;;;23.85;44.55;95569.22;6250010;27;108959;-73
2023/08/13 06:03:41;;;;;;;8.88;5.35;;;;;;;24.00;44.34;95564.63;6250677;27;109322;-72
2023/08/13 06:06:44;;;;;;;6.25;5.40;;;;;;;24.11;44.05;95565.97;6258328;27;109046;-72
2023/08/13 06:09:47;;;;;;;8.23;5.30;;;;;;;24.23;44.11;95565.41;6253164;27;109077;-73
2023/08/13 06:12:50;;;;;;;7.23;5.53;;;;;;;24.30;44.77;95569.22;6241186;27;110155;-74
2023/08/13 06:15:55;;;;;;;5.60;4.90;;;;;;;24.38;44.18;95565.81;6242292;27;109134;-74
2023/08/13 06:18:58;;;;;;;5.97;5.00;;;;;;;24.41;44.00;95564.41;6243354;27;109108;-74
2023/08/13 06:22:01;;;;;;;8.13;5.80;;;;;;;24.39;44.47;95569.28;6241614;27;109054;-73
2023/08/13 06:25:04;;;;;;;6.82;5.30;;;;;;;24.47;44.45;95568.53;6240910;27;110361;-73
2023/08/13 06:28:08;;;;;;;8.30;6.90;;;;;;;24.60;44.72;95558.81;6245187;27;109347;-74
2023/08/13 06:31:12;;;;;;;8.38;6.78;;;;;;;24.73;45.76;95566.00;6261531;27;109164;-71
2023/08/13 06:34:35;;;;;;;9.70;6.10;;;;;;;24.84;44.99;95566.50;6244190;27;110736;-71
2023/08/13 06:37:38;;;;;;;9.18;5.90;;;;;;;24.85;44.44;95573.41;6243344;27;109149;-67
2023/08/13 06:41:05;;;;;;;7.55;5.50;;;;;;;24.91;44.25;95567.63;6259991;27;108842;-67
2023/08/13 06:44:18;;;;;;;8.75;7.60;;;;;;;25.09;43.76;95571.94;6244242;27;109045;-66
2023/08/13 06:47:23;;;;;;;10.32;9.32;;;;;;;25.07;43.11;95566.09;6228333;27;109250;-66
2023/08/13 06:50:27;;;;;;;8.93;7.72;;;;;;;25.00;43.18;95565.75;6258487;27;109032;-67
2023/08/13 06:53:31;;;;;;;9.23;7.38;;;;;;;25.07;43.01;95566.09;6249091;27;108926;-67
2023/08/13 06:56:35;;;;;;;9.60;7.00;;;;;;;25.15;43.44;95563.72;6240808;27;109476;-67
2023/08/13 06:59:38;;;;;;;6.40;5.78;;;;;;;25.12;42.71;95561.69;6226864;27;110477;-67
2023/08/13 07:02:43;;;;;;;9.95;8.95;;;;;;;25.17;42.67;95565.00;6237732;27;109342;-67
2023/08/13 07:05:46;;;;;;;6.82;6.22;;;;;;;25.08;42.37;95565.00;6237825;27;108969;-66
2023/08/13 07:08:49;;;;;;;6.40;5.60;;;;;;;25.02;42.69;95557.41;6233117;27;109204;-67
2023/08/13 07:11:52;;;;;;;6.15;5.55;;;;;;;24.91;41.69;95559.59;6253262;27;108990;-67
2023/08/13 07:14:55;;;;;;;7.78;5.80;;;;;;;25.04;41.89;95558.69;6256719;27;109130;-67
2023/08/13 07:18:00;;;;;;;7.15;6.10;;;;;;;25.22;41.68;95554.16;6261822;27;109100;-66
2023/08/13 07:21:06;;;;;;;5.88;5.28;;;;;;;25.19;41.93;95556.66;6239952;27;109347;-66
2023/08/13 07:24:09;;;;;;;6.40;5.80;;;;;;;25.43;41.10;95554.34;6236981;27;109324;-67
2023/08/13 07:27:12;;;;;;;9.80;9.00;;;;;;;25.43;40.64;95550.88;6237437;27;109009;-66
2023/08/13 07:30:16;;;;;;;7.60;6.90;;;;;;;24.99;41.52;95548.09;6242521;27;109177;-67
2023/08/13 07:33:21;;;;;;;6.40;5.80;;;;;;;25.10;41.90;95548.59;6252071;27;109203;-67
2023/08/13 07:36:24;;;;;;;6.00;5.50;;;;;;;25.14;41.93;95548.78;6261319;27;109061;-65
2023/08/13 07:39:32;;;;;;;6.05;5.50;;;;;;;25.23;41.42;95546.91;6261862;27;109588;-67
2023/08/13 07:42:36;;;;;;;8.07;5.80;;;;;;;25.31;41.27;95543.44;6257004;27;109856;-67
2023/08/13 07:45:43;;;;;;;5.83;5.33;;;;;;;25.53;40.99;95545.97;6249461;27;109330;-64
2023/08/13 07:48:48;;;;;;;6.27;5.67;;;;;;;25.61;40.74;95539.06;6261230;27;109629;-65
2023/08/13 07:51:51;;;;;;;6.30;5.75;;;;;;;25.61;40.90;95545.22;6261396;27;109006;-65
2023/08/13 07:55:07;;;;;;;6.20;5.70;;;;;;;25.53;40.94;95537.94;6251242;27;109285;-65
2023/08/13 07:58:18;;;;;;;6.60;5.90;;;;;;;25.47;41.31;95535.75;6261298;27;109037;-64
2023/08/13 08:01:36;;;;;;;6.43;5.82;;;;;;;25.30;40.70;95528.47;6245275;27;109725;-63
2023/08/13 08:04:42;;;;;;;5.85;4.93;;;;;;;25.38;40.53;95533.09;6236507;27;109323;-64
2023/08/13 08:07:45;;;;;;;5.40;4.90;;;;;;;25.42;39.97;95538.59;6250247;27;109224;-63
2023/08/13 08:10:48;;;;;;;5.00;4.60;;;;;;;25.64;39.71;95530.38;6261240;27;109093;-64
2023/08/13 08:13:51;;;;;;;5.00;4.60;;;;;;;25.86;39.70;95524.03;6261334;27;109290;-64
2023/08/13 08:16:59;;;;;;;5.30;4.80;;;;;;;25.91;39.96;95518.53;6231585;27;109258;-65
2023/08/13 08:20:06;;;;;;;5.00;4.60;;;;;;;25.94;39.88;95523.25;6229794;27;109621;-64
2023/08/13 08:23:09;;;;;;;4.90;4.50;;;;;;;26.01;39.69;95512.84;6236528;28;111980;-66
2023/08/13 08:26:12;;;;;;;5.20;4.70;;;;;;;25.93;40.16;95503.69;6245644;27;109062;-65
2023/08/13 08:29:15;;;;;;;5.07;4.53;;;;;;;25.91;40.07;95502.44;6251742;27;108929;-64
2023/08/13 08:32:19;;;;;;;5.50;5.00;;;;;;;26.03;39.23;95499.91;6241693;27;109293;-64
2023/08/13 08:35:23;;;;;;;4.68;4.28;;;;;;;25.96;38.70;95492.31;6237572;27;109123;-65
2023/08/13 08:38:27;;;;;;;4.72;4.32;;;;;;;25.98;38.40;95487.44;6260591;27;109046;-64
2023/08/13 08:41:32;;;;;;;6.05;4.68;;;;;;;25.71;39.35;95487.00;6249450;27;110290;-65
2023/08/13 08:44:39;;;;;;;4.80;4.40;;;;;;;25.78;39.33;95493.47;6256311;27;109115;-64
2023/08/13 08:47:44;;;;;;;5.80;5.00;;;;;;;25.79;39.22;95488.91;6235796;27;110489;-64
2023/08/13 08:50:49;;;;;;;5.40;4.90;;;;;;;25.86;39.24;95484.63;6229949;27;109100;-65
2023/08/13 08:53:54;;;;;;;5.50;4.78;;;;;;;25.68;39.37;95480.38;6229984;27;109083;-64
2023/08/13 08:56:57;;;;;;;5.00;4.60;;;;;;;25.75;39.19;95479.91;6235422;27;109409;-73
2023/08/13 09:00:00;;;;;;;4.60;4.20;;;;;;;26.01;38.57;95477.97;6235515;27;109176;-72
2023/08/13 09:03:04;;;;;;;5.50;5.00;;;;;;;26.19;38.29;95482.19;6248194;27;109253;-73
2023/08/13 09:06:09;;;;;;;5.47;4.20;;;;;;;26.19;37.18;95481.41;6253141;27;109215;-73
2023/08/13 09:09:23;;;;;;;6.17;4.00;;;;;;;26.23;36.83;95472.41;6235775;27;109501;-73
2023/08/13 09:12:27;;;;;;;5.35;3.95;;;;;;;26.21;36.68;95479.16;6235542;27;109181;-73
2023/08/13 09:15:30;;;;;;;4.20;3.80;;;;;;;26.19;37.17;95476.03;6225810;27;109264;-73
2023/08/13 09:18:39;;;;;;;4.25;3.85;;;;;;;26.20;36.17;95467.66;6260318;27;109111;-74
2023/08/13 09:21:50;;;;;;;4.93;4.10;;;;;;;26.13;36.06;95462.00;6258787;27;108972;-73
2023/08/13 09:24:53;;;;;;;4.18;3.88;;;;;;;26.23;36.32;95450.94;6255768;27;109294;-72
2023/08/13 09:27:57;;;;;;;5.10;4.70;;;;;;;26.27;37.10;95451.88;6254436;27;109464;-73
2023/08/13 09:31:00;;;;;;;4.88;4.47;;;;;;;26.28;37.11;95448.06;6260471;27;109210;-74
2023/08/13 09:34:04;;;;;;;4.40;4.00;;;;;;;26.37;36.63;95449.91;6260163;27;109492;-74
2023/08/13 09:37:09;;;;;;;4.85;4.00;;;;;;;26.37;36.32;95448.00;6250592;27;109501;-71
2023/08/13 09:40:12;;;;;;;4.20;3.80;;;;;;;26.24;35.90;95444.47;6260963;27;109784;-72
2023/08/13 09:43:21;;;;;;;4.70;4.30;;;;;;;26.07;36.79;95452.56;6260922;27;110319;-73
2023/08/13 09:46:28;;;;;;;7.30;6.50;;;;;;;26.09;37.42;95449.56;6240806;27;109273;-74
2023/08/13 09:49:33;;;;;;;4.30;3.90;;;;;;;26.06;36.32;95448.31;6224078;27;111822;-73
2023/08/13 09:52:38;;;;;;;4.40;4.00;;;;;;;26.14;36.09;95454.75;6233082;27;109436;-73
2023/08/13 09:55:48;;;;;;;4.40;4.00;;;;;;;26.09;37.26;95453.03;6234382;27;109079;-72
2023/08/13 09:58:52;;;;;;;5.70;5.20;;;;;;;26.06;38.01;95440.28;6231089;27;109504;-68
2023/08/13 10:01:57;;;;;;;5.30;4.90;;;;;;;25.81;38.51;95441.88;6228198;27;108874;-73
2023/08/13 10:05:03;;;;;;;5.10;4.60;;;;;;;26.03;38.69;95446.25;6234066;27;109422;-73
2023/08/13 10:24:22;;;;;;;8.10;5.50;;;;;;;25.81;39.04;95439.22;5894215;29;109076;-73
2023/08/13 10:27:26;;;;;;;6.45;5.32;;;;;;;25.97;39.37;95442.16;6090839;28;109434;-72
2023/08/13 10:30:30;;;;;;;11.05;6.18;;;;;;;26.01;39.46;95439.66;6179378;28;109192;-72
2023/08/13 10:34:16;;;;;;;7.28;5.93;;;;;;;26.04;40.16;95450.50;6204846;28;109047;-72
2023/08/13 10:46:52;;;;;;;9.98;5.50;;;;;;;26.13;39.94;95443.22;5902728;29;108938;-73
2023/08/13 10:49:57;;;;;;;8.00;5.47;;;;;;;26.13;39.83;95439.75;6027879;28;110947;-69
2023/08/13 10:53:08;;;;;;;6.15;5.53;;;;;;;26.05;41.30;95441.38;6129346;28;110234;-73
2023/08/13 10:56:19;;;;;;;5.88;5.28;;;;;;;25.92;42.27;95445.81;6121488;28;110149;-73
2023/08/13 10:59:29;;;;;;;6.40;4.87;;;;;;;25.86;42.20;95430.97;6112039;28;109869;-74
2023/08/13 11:02:34;;;;;;;5.32;4.93;;;;;;;25.94;42.04;95429.41;6112280;28;109179;-74
2023/08/13 11:39:19;;;;;;;5.30;4.90;;;;;;;25.69;43.06;95420.31;5921610;28;108969;-73
2023/08/13 11:46:33;;;;;;;5.30;4.80;;;;;;;25.68;42.23;95408.81;6119417;28;110743;-72
2023/08/13 12:03:14;;;;;;;;;;;;;;;;;;;;;
2023/08/13 12:31:05;;;;;;;6.32;5.72;;;;;;;26.14;43.39;95407.25;5961914;29;108900;-62
2023/08/13 12:34:51;;;;;;;8.00;6.40;;;;;;;26.16;43.24;95390.84;5989986;29;109150;-63
2023/08/13 12:42:39;;;;;;;7.07;6.53;;;;;;;26.17;42.73;95387.81;5920755;29;110013;-60
2023/08/13 12:57:57;;;;;;;6.80;6.20;;;;;;;26.23;40.86;95380.41;5938814;29;109062;-66
2023/08/13 13:01:01;;;;;;;6.95;5.80;;;;;;;26.27;40.84;95382.09;5943849;29;112080;-62
2023/08/13 13:04:05;;;;;;;6.32;5.72;;;;;;;26.28;40.87;95385.56;6033820;28;108932;-61
2023/08/13 13:07:08;;;;;;;9.00;8.20;;;;;;;26.20;41.12;95383.69;6056671;28;109189;-61
2023/08/13 13:10:11;;;;;;;7.60;6.90;;;;;;;26.20;41.33;95375.66;6052351;28;109606;-61
2023/08/13 13:13:16;;;;;;;7.18;6.57;;;;;;;26.27;40.59;95378.63;6049721;28;109145;-60
2023/08/13 13:16:19;;;;;;;7.00;6.40;;;;;;;26.24;40.75;95371.22;6093702;28;109075;-61
2023/08/13 13:19:22;;;;;;;7.53;6.93;;;;;;;26.34;40.60;95372.75;6157615;28;109368;-61
2023/08/13 13:22:25;;;;;;;8.87;7.50;;;;;;;26.36;40.99;95367.84;6158319;28;109430;-61
2023/08/13 13:25:28;;;;;;;7.80;7.00;;;;;;;26.37;41.10;95372.09;6161593;27;109047;-61
2023/08/13 13:28:33;;;;;;;7.80;6.97;;;;;;;26.38;41.21;95373.66;6247843;27;109615;-62
2023/08/13 13:31:36;;;;;;;7.10;6.50;;;;;;;26.37;40.82;95369.41;6238269;28;110028;-62
2023/08/13 13:34:39;;;;;;;7.20;6.50;;;;;;;26.36;41.30;95362.47;6226904;27;109120;-61
2023/08/13 13:37:42;;;;;;;6.90;6.30;;;;;;;26.37;41.45;95358.66;6238000;27;109352;-64
2023/08/13 13:40:46;;;;;;;6.80;6.20;;;;;;;26.37;41.20;95361.34;6237003;27;108933;-66
2023/08/13 13:43:50;;;;;;;7.10;6.50;;;;;;;26.35;41.36;95366.25;6238218;27;110065;-64
2023/08/13 13:46:53;;;;;;;7.00;6.50;;;;;;;26.40;41.23;95364.19;6227958;27;109095;-63
2023/08/13 13:49:56;;;;;;;6.88;6.38;;;;;;;26.40;41.24;95363.41;6248988;27;108995;-63
2023/08/13 13:52:59;;;;;;;7.20;6.60;;;;;;;26.38;41.65;95361.06;6251667;27;109209;-64
2023/08/13 13:56:21;;;;;;;6.93;6.10;;;;;;;26.37;41.85;95358.66;6241577;27;110107;-65
2023/08/13 13:59:26;;;;;;;6.93;6.32;;;;;;;26.39;41.68;95359.16;6265912;27;110147;-63
2023/08/13 14:02:29;;;;;;;7.10;5.90;;;;;;;26.36;42.18;95357.09;6237643;28;108997;-63
2023/08/13 14:05:33;;;;;;;6.63;6.13;;;;;;;26.37;41.49;95358.66;6239333;27;110086;-65
2023/08/13 14:08:36;;;;;;;6.90;6.30;;;;;;;26.31;41.88;95349.25;6239372;27;110329;-63
2023/08/13 14:11:39;;;;;;;6.30;5.67;;;;;;;26.22;41.14;95358.16;6257518;27;109110;-65
2023/08/13 14:14:44;;;;;;;5.80;5.30;;;;;;;26.23;40.59;95348.19;6244109;27;109098;-64
2023/08/13 14:17:47;;;;;;;6.20;5.60;;;;;;;26.15;40.74;95357.84;6249857;27;109496;-64
2023/08/13 14:20:51;;;;;;;6.18;5.68;;;;;;;26.19;40.49;95360.66;6246889;27;110110;-63
2023/08/13 14:23:54;;;;;;;6.03;5.53;;;;;;;26.17;40.47;95346.78;6244673;27;110172;-63
2023/08/13 14:26:57;;;;;;;5.90;5.40;;;;;;;26.21;39.70;95355.75;6260313;27;109468;-64
2023/08/13 14:30:02;;;;;;;5.30;4.90;;;;;;;26.25;39.70;95346.75;6231143;27;109195;-63
2023/08/13 14:33:05;;;;;;;5.60;5.10;;;;;;;26.25;38.91;95357.50;6237410;27;109077;-64
2023/08/13 14:36:09;;;;;;;5.78;5.18;;;;;;;26.25;39.27;95362.84;6250014;27;108922;-63
2023/08/13 14:39:12;;;;;;;5.03;4.53;;;;;;;26.28;38.80;95362.22;6241741;27;110055;-64
2023/08/13 14:42:15;;;;;;;5.43;4.70;;;;;;;26.28;39.16;95358.75;6242629;27;108859;-64
2023/08/13 14:45:20;;;;;;;5.10;4.70;;;;;;;26.22;38.97;95370.78;6242895;27;109046;-63
2023/08/13 14:48:25;;;;;;;4.95;4.55;;;;;;;26.20;39.17;95376.44;6251507;27;109275;-63
2023/08/13 14:51:28;;;;;;;5.40;5.00;;;;;;;26.21;39.81;95375.34;6244667;27;110102;-63
2023/08/13 14:54:31;;;;;;;5.15;4.75;;;;;;;26.21;40.00;95379.91;6248956;27;111544;-61
2023/08/13 14:57:34;;;;;;;6.43;4.80;;;;;;;26.23;39.84;95375.03;6254796;27;109016;-67
2023/08/13 15:00:38;;;;;;;5.72;5.20;;;;;;;26.30;39.34;95369.16;6252247;27;110222;-67
2023/08/13 15:03:42;;;;;;;7.43;5.00;;;;;;;26.34;39.77;95368.16;6244843;27;109647;-69
2023/08/13 15:06:45;;;;;;;6.25;5.25;;;;;;;26.34;40.23;95370.06;6236135;27;109791;-71
2023/08/13 15:09:48;;;;;;;5.80;5.30;;;;;;;26.35;40.11;95359.00;6244517;27;108759;-70
2023/08/13 15:12:52;;;;;;;6.57;5.35;;;;;;;26.35;40.35;95356.31;6260274;27;109508;-69
2023/08/13 15:15:56;;;;;;;7.38;5.65;;;;;;;26.33;39.91;95357.75;6234262;27;112580;-68
2023/08/13 15:18:59;;;;;;;6.20;5.68;;;;;;;26.35;39.97;95359.00;6261059;27;108708;-69
2023/08/13 15:22:03;;;;;;;6.18;5.57;;;;;;;26.23;40.06;95354.34;6261681;27;111093;-67
2023/08/13 15:25:06;;;;;;;6.75;5.90;;;;;;;26.19;40.08;95352.63;6241727;27;109098;-66
2023/08/13 15:28:10;;;;;;;6.45;5.50;;;;;;;26.14;40.02;95350.13;6254285;27;111122;-67
2023/08/13 15:31:14;;;;;;;6.22;5.53;;;;;;;26.16;40.35;95359.41;6249200;27;109330;-67
2023/08/13 15:34:17;;;;;;;7.57;5.50;;;;;;;26.21;39.58;95361.13;6237217;27;109033;-65
2023/08/13 15:37:20;;;;;;;7.20;5.50;;;;;;;26.21;40.35;95350.41;6258730;27;110606;-67
2023/08/13 15:40:24;;;;;;;7.30;5.97;;;;;;;26.21;40.32;95353.91;6225211;27;109229;-68
2023/08/13 15:43:27;;;;;;;5.80;5.30;;;;;;;26.23;39.91;95351.66;6240183;27;109229;-66
2023/08/13 15:46:31;;;;;;;6.33;5.30;;;;;;;26.24;39.80;95350.56;6239627;27;109601;-68
2023/08/13 15:49:34;;;;;;;7.25;5.00;;;;;;;26.19;39.25;95364.13;6244143;27;109186;-67
2023/08/13 15:52:37;;;;;;;5.78;5.10;;;;;;;26.24;39.10;95373.91;6247750;27;109087;-66
2023/08/13 15:55:41;;;;;;;5.05;4.55;;;;;;;26.21;39.83;95367.31;6253136;27;109587;-65
2023/08/13 15:58:44;;;;;;;5.70;5.20;;;;;;;26.23;39.10;95370.44;6235697;27;109012;-63
2023/08/13 16:01:49;;;;;;;6.00;5.50;;;;;;;26.26;39.16;95359.06;6223736;27;109402;-63
2023/08/13 16:04:52;;;;;;;6.65;5.50;;;;;;;26.20;39.17;95363.03;6242832;27;109161;-64
2023/08/13 16:07:55;;;;;;;5.80;5.30;;;;;;;26.26;39.04;95360.97;6244165;27;109202;-63
2023/08/13 16:10:59;;;;;;;5.97;5.20;;;;;;;26.25;39.67;95362.84;6235149;27;109412;-62
2023/08/13 16:14:02;;;;;;;5.80;5.30;;;;;;;26.29;39.24;95365.66;6229071;27;109350;-65
2023/08/13 16:17:07;;;;;;;5.93;5.33;;;;;;;26.25;38.73;95372.81;6251573;27;109532;-63